Time;durP1;ratioP1;P1;durP2;ratioP2;P2;SDS_P1;SDS_P2;PMS_P1;PMS_P2;Temp;Humidity;BMP_temperature;BMP_pressure;BME280_temperature;BME280_humidity;BME280_pressure;Samples;Min_cycle;Max_cycle;Signal;HPM_P1;HPM_P2
2021/09/26 00:01:03;;;;;;;5.93;5.32;;;18.70;99.90;;;;;;5093018;28;20085;-68
2021/09/26 00:03:29;;;;;;;6.97;5.13;;;19.00;99.90;;;;;;5093770;28;20401;-68
2021/09/26 00:05:55;;;;;;;10.95;5.82;;;19.20;99.90;;;;;;5092000;28;20032;-68
2021/09/26 00:08:20;;;;;;;7.07;5.50;;;19.40;99.90;;;;;;5092793;28;20507;-68
2021/09/26 00:10:46;;;;;;;7.95;5.38;;;19.60;99.90;;;;;;5092521;28;20035;-68
2021/09/26 00:13:12;;;;;;;6.55;5.57;;;19.70;99.90;;;;;;5092411;28;20043;-68
2021/09/26 00:15:37;;;;;;;10.35;5.50;;;19.80;99.90;;;;;;5093383;28;20028;-68
2021/09/26 00:18:03;;;;;;;8.52;5.18;;;19.90;99.90;;;;;;5091939;28;20034;-68
2021/09/26 00:20:29;;;;;;;7.82;4.65;;;19.90;99.90;;;;;;5093170;28;20028;-68
2021/09/26 00:22:56;;;;;;;7.28;4.82;;;19.90;99.90;;;;;;5073763;28;20028;-68
2021/09/26 00:25:21;;;;;;;8.45;5.50;;;20.00;99.90;;;;;;5092801;28;20035;-68
2021/09/26 00:27:48;;;;;;;8.88;5.93;;;20.10;99.90;;;;;;5092633;28;20032;-68
2021/09/26 00:30:14;;;;;;;8.63;5.88;;;20.00;99.90;;;;;;5091893;28;20099;-68
2021/09/26 00:32:41;;;;;;;9.75;6.43;;;20.00;99.90;;;;;;5092484;28;20020;-68
2021/09/26 00:35:08;;;;;;;10.85;7.00;;;19.90;99.90;;;;;;5091838;28;20036;-68
2021/09/26 00:37:34;;;;;;;11.77;8.00;;;19.90;99.90;;;;;;5091853;28;20038;-68
2021/09/26 00:39:59;;;;;;;13.00;8.68;;;19.60;99.90;;;;;;5071528;28;20036;-68
2021/09/26 00:42:25;;;;;;;11.07;8.15;;;19.40;99.90;;;;;;5089734;28;20056;-68
2021/09/26 00:44:51;;;;;;;14.80;6.68;;;19.20;99.90;;;;;;5092259;28;20028;-68
2021/09/26 00:47:17;;;;;;;8.90;6.03;;;19.00;99.90;;;;;;5091700;28;20422;-68
2021/09/26 00:49:43;;;;;;;10.52;5.13;;;18.90;99.90;;;;;;5092365;28;20039;-68
2021/09/26 00:52:08;;;;;;;8.77;4.82;;;18.90;99.90;;;;;;5091453;28;20484;-68
2021/09/26 00:54:36;;;;;;;7.88;5.18;;;18.90;99.90;;;;;;5092450;28;20024;-68
2021/09/26 00:57:03;;;;;;;9.38;5.90;;;18.90;99.90;;;;;;5091510;28;20028;-68
2021/09/26 00:59:28;;;;;;;8.77;5.80;;;18.80;99.90;;;;;;5092312;28;20161;-68
2021/09/26 01:01:54;;;;;;;8.23;5.75;;;18.80;99.90;;;;;;5091800;28;20060;-68
2021/09/26 01:04:20;;;;;;;8.77;5.90;;;18.70;99.90;;;;;;5091397;28;20507;-68
2021/09/26 01:06:56;;;;;;;9.18;5.07;;;18.80;99.90;;;;;;5091548;28;20050;-68
2021/09/26 01:09:35;;;;;;;7.43;5.20;;;18.80;99.90;;;;;;5092480;28;20031;-68
2021/09/26 01:12:27;;;;;;;6.22;4.82;;;18.80;99.90;;;;;;5091306;28;20035;-68
2021/09/26 01:15:11;;;;;;;8.52;5.80;;;18.90;99.90;;;;;;5091931;28;20033;-68
2021/09/26 01:18:11;;;;;;;7.90;5.60;;;18.90;99.90;;;;;;5092020;28;20032;-68
2021/09/26 01:20:57;;;;;;;10.77;7.07;;;18.80;99.90;;;;;;5066690;28;20374;-68
2021/09/26 01:23:34;;;;;;;9.02;6.50;;;18.80;99.90;;;;;;5091353;28;20461;-68
2021/09/26 01:26:22;;;;;;;11.10;7.20;;;18.80;99.90;;;;;;5091114;28;20039;-68
2021/09/26 01:29:06;;;;;;;8.57;6.60;;;18.70;99.90;;;;;;5091708;28;20059;-68
2021/09/26 01:31:36;;;;;;;9.10;6.85;;;18.70;99.90;;;;;;5091491;28;20470;-68
2021/09/26 01:34:09;;;;;;;;;;;18.60;99.90;;;;;;5091537;28;20465;-68
2021/09/26 01:36:50;;;;;;;8.93;6.85;;;18.50;99.90;;;;;;5091512;28;20365;-69
2021/09/26 01:39:22;;;;;;;12.32;8.85;;;18.40;99.90;;;;;;5090997;28;20043;-68
2021/09/26 01:42:19;;;;;;;11.30;8.18;;;18.30;99.90;;;;;;5091293;28;20497;-68
2021/09/26 01:45:01;;;;;;;10.45;7.35;;;18.20;99.90;;;;;;5056531;28;20074;-68
2021/09/26 01:47:37;;;;;;;8.98;6.40;;;18.10;99.90;;;;;;5092269;28;20121;-68
2021/09/26 01:50:09;;;;;;;8.18;7.13;;;18.00;99.90;;;;;;5097504;28;20024;-68
2021/09/26 01:52:37;;;;;;;9.13;7.57;;;17.90;99.90;;;;;;5097782;28;20381;-68
2021/09/26 01:55:05;;;;;;;12.50;7.95;;;17.80;99.90;;;;;;5097428;28;20028;-68
2021/09/26 01:57:32;;;;;;;11.18;7.95;;;17.70;99.90;;;;;;5097572;28;20030;-68
2021/09/26 02:00:01;;;;;;;10.23;7.90;;;17.60;99.90;;;;;;5097609;28;20036;-67
2021/09/26 02:02:28;;;;;;;9.18;7.75;;;17.60;99.90;;;;;;5098588;28;20042;-68
2021/09/26 02:04:59;;;;;;;12.35;8.75;;;17.50;99.90;;;;;;5098064;28;20028;-68
2021/09/26 02:07:30;;;;;;;10.00;6.90;;;17.40;99.90;;;;;;5098307;28;20024;-68
2021/09/26 02:09:56;;;;;;;15.60;8.00;;;17.30;99.90;;;;;;5098207;28;20038;-68
2021/09/26 02:12:24;;;;;;;10.85;7.78;;;17.20;99.90;;;;;;5097264;28;20469;-69
2021/09/26 02:14:51;;;;;;;10.02;8.05;;;17.20;99.90;;;;;;5097900;28;20103;-68
2021/09/26 02:17:17;;;;;;;10.45;7.50;;;17.10;99.90;;;;;;5097210;28;20103;-68
2021/09/26 02:19:44;;;;;;;8.30;6.30;;;17.20;99.90;;;;;;5098192;28;20500;-68
2021/09/26 02:22:10;;;;;;;8.23;6.30;;;17.20;99.90;;;;;;5097270;28;20040;-68
2021/09/26 02:24:38;;;;;;;9.57;7.50;;;17.10;99.90;;;;;;5098117;28;20446;-68
2021/09/26 02:27:05;;;;;;;9.32;6.85;;;17.10;99.90;;;;;;5097254;28;20036;-68
2021/09/26 02:29:32;;;;;;;8.65;7.10;;;17.00;99.90;;;;;;5097691;28;20519;-68
2021/09/26 02:31:58;;;;;;;7.40;6.25;;;17.00;99.90;;;;;;5097317;28;20069;-67
2021/09/26 02:34:23;;;;;;;9.38;6.82;;;16.90;99.90;;;;;;5098005;28;20114;-68
2021/09/26 02:36:49;;;;;;;14.48;7.90;;;16.90;99.90;;;;;;5097685;28;20035;-68
2021/09/26 02:39:17;;;;;;;10.13;6.32;;;16.80;99.90;;;;;;5096995;28;20734;-68
2021/09/26 02:41:59;;;;;;;8.10;5.93;;;16.80;99.90;;;;;;5097642;28;20048;-68
2021/09/26 02:44:39;;;;;;;9.40;6.50;;;16.70;99.90;;;;;;5097891;28;20107;-68
2021/09/26 02:47:12;;;;;;;8.30;6.15;;;16.70;99.90;;;;;;5097444;28;20036;-68
2021/09/26 02:49:39;;;;;;;7.50;5.88;;;16.70;99.90;;;;;;5098062;28;20032;-68
2021/09/26 02:52:06;;;;;;;10.55;6.00;;;16.60;99.90;;;;;;5096359;28;20109;-68
2021/09/26 02:54:37;;;;;;;8.52;5.95;;;16.60;99.90;;;;;;5097951;28;20024;-68
2021/09/26 02:57:05;;;;;;;10.80;6.50;;;16.60;99.90;;;;;;5097144;28;20465;-68
2021/09/26 02:59:31;;;;;;;9.50;6.07;;;16.50;99.90;;;;;;5096280;28;20032;-69
2021/09/26 03:01:57;;;;;;;10.68;6.75;;;16.50;99.90;;;;;;5094430;28;20039;-68
2021/09/26 03:04:23;;;;;;;8.48;6.35;;;16.50;99.90;;;;;;5094136;28;20024;-69
2021/09/26 03:06:49;;;;;;;6.20;5.30;;;16.50;99.90;;;;;;5094056;28;20032;-68
2021/09/26 03:09:15;;;;;;;8.82;6.50;;;16.40;99.90;;;;;;5093597;28;20035;-68
2021/09/26 03:11:41;;;;;;;7.18;6.07;;;16.40;99.90;;;;;;5094607;28;20391;-68
2021/09/26 03:14:07;;;;;;;8.82;6.05;;;16.30;99.90;;;;;;5093876;28;20029;-68
2021/09/26 03:16:32;;;;;;;8.77;5.80;;;16.30;99.90;;;;;;5094114;28;20137;-69
2021/09/26 03:18:58;;;;;;;8.10;5.72;;;16.30;99.90;;;;;;5093925;28;20059;-68
2021/09/26 03:21:24;;;;;;;8.48;6.50;;;16.20;99.90;;;;;;5093405;28;20028;-68
2021/09/26 03:23:49;;;;;;;11.57;6.93;;;16.20;99.90;;;;;;5094380;28;20470;-69
2021/09/26 03:26:15;;;;;;;9.43;7.13;;;16.10;99.90;;;;;;5092946;28;20070;-68
2021/09/26 03:28:41;;;;;;;8.98;7.00;;;16.10;99.90;;;;;;5093852;28;20028;-68
2021/09/26 03:31:07;;;;;;;9.25;6.38;;;16.10;99.90;;;;;;5093292;28;20081;-67
2021/09/26 03:33:32;;;;;;;8.82;6.78;;;16.00;99.90;;;;;;5094045;28;20031;-67
2021/09/26 03:35:58;;;;;;;10.00;6.40;;;16.00;99.90;;;;;;5094004;28;20032;-66
2021/09/26 03:38:24;;;;;;;9.35;6.95;;;15.90;99.90;;;;;;5092730;28;20067;-67
2021/09/26 03:40:49;;;;;;;10.82;6.97;;;15.90;99.90;;;;;;5093892;28;20528;-67
2021/09/26 03:43:16;;;;;;;10.80;6.97;;;15.90;99.90;;;;;;5074757;28;20123;-68
2021/09/26 03:45:42;;;;;;;9.73;6.38;;;15.90;99.90;;;;;;5093582;28;20022;-67
2021/09/26 03:48:08;;;;;;;8.00;6.30;;;15.90;99.90;;;;;;5092905;28;20035;-67
2021/09/26 03:50:34;;;;;;;8.63;6.65;;;15.80;99.90;;;;;;5093805;28;20020;-68
2021/09/26 03:53:00;;;;;;;7.88;6.60;;;15.80;99.90;;;;;;5092999;28;20115;-67
2021/09/26 03:55:25;;;;;;;11.63;7.85;;;15.70;99.90;;;;;;5093309;28;20111;-67
2021/09/26 03:57:51;;;;;;;10.90;6.97;;;15.70;99.90;;;;;;5093766;28;20039;-67
2021/09/26 04:00:19;;;;;;;9.00;6.47;;;15.60;99.90;;;;;;5093109;28;20430;-67
2021/09/26 04:02:45;;;;;;;7.80;6.93;;;15.70;99.90;;;;;;5093064;28;20035;-67
2021/09/26 04:05:11;;;;;;;7.78;6.50;;;15.70;99.90;;;;;;5093040;28;20028;-67
2021/09/26 04:07:37;;;;;;;8.95;6.72;;;15.70;99.90;;;;;;5092422;28;20086;-67
2021/09/26 04:10:06;;;;;;;10.70;6.93;;;15.70;99.90;;;;;;5092770;28;20121;-67
2021/09/26 04:12:31;;;;;;;9.90;7.18;;;15.60;99.90;;;;;;5080472;28;20036;-67
2021/09/26 04:14:57;;;;;;;11.73;6.88;;;15.60;99.90;;;;;;5093157;28;20080;-67
2021/09/26 04:17:22;;;;;;;10.20;7.03;;;15.60;99.90;;;;;;5092531;28;20043;-67
2021/09/26 04:19:48;;;;;;;8.65;7.22;;;15.50;99.90;;;;;;5092706;28;20132;-67
2021/09/26 04:22:14;;;;;;;12.05;7.53;;;15.60;99.90;;;;;;5092099;28;20034;-67
2021/09/26 04:24:39;;;;;;;10.45;7.53;;;15.60;99.90;;;;;;5093110;28;20404;-67
2021/09/26 04:27:05;;;;;;;15.48;6.72;;;15.60;99.90;;;;;;5091794;28;20082;-67
2021/09/26 04:29:30;;;;;;;9.07;6.90;;;15.70;99.90;;;;;;5093348;28;20051;-67
2021/09/26 04:31:56;;;;;;;8.48;7.13;;;15.70;99.90;;;;;;5074737;28;20024;-67
2021/09/26 04:34:26;;;;;;;10.65;7.57;;;15.70;99.90;;;;;;5091910;28;20028;-67
2021/09/26 04:36:53;;;;;;;8.95;6.28;;;15.80;99.90;;;;;;5092174;28;20521;-68
2021/09/26 04:39:19;;;;;;;9.60;7.68;;;15.80;99.90;;;;;;5091883;28;20889;-67
2021/09/26 04:41:44;;;;;;;11.48;7.90;;;15.80;99.90;;;;;;5092349;28;20052;-67
2021/09/26 04:44:10;;;;;;;12.93;7.07;;;15.80;99.90;;;;;;5091680;28;20050;-67
2021/09/26 04:46:36;;;;;;;13.40;7.57;;;15.80;99.90;;;;;;5092542;28;20389;-67
2021/09/26 04:49:04;;;;;;;11.77;6.78;;;15.80;99.90;;;;;;5092174;28;20103;-67
2021/09/26 04:51:30;;;;;;;10.93;7.43;;;15.80;99.90;;;;;;5092172;28;20077;-67
2021/09/26 04:53:55;;;;;;;13.32;8.70;;;15.90;99.90;;;;;;5092309;28;20028;-67
2021/09/26 04:56:21;;;;;;;13.20;8.77;;;16.00;99.90;;;;;;5091414;28;20028;-66
2021/09/26 04:58:47;;;;;;;10.35;8.07;;;15.90;99.90;;;;;;5092246;28;20020;-67
2021/09/26 05:01:13;;;;;;;13.23;8.93;;;15.70;99.90;;;;;;5091702;28;20078;-67
2021/09/26 05:03:38;;;;;;;14.15;9.57;;;15.60;99.90;;;;;;5091864;28;20034;-67
2021/09/26 05:06:04;;;;;;;14.98;10.32;;;15.50;99.90;;;;;;5091661;28;20042;-66
2021/09/26 05:08:30;;;;;;;14.98;10.13;;;15.50;99.90;;;;;;5091717;28;20469;-67
2021/09/26 05:10:55;;;;;;;11.10;8.90;;;15.40;99.90;;;;;;5091911;28;20035;-67
2021/09/26 05:13:21;;;;;;;9.95;7.50;;;15.40;99.90;;;;;;5090638;28;20058;-67
2021/09/26 05:15:47;;;;;;;11.10;8.32;;;15.30;99.90;;;;;;5092205;28;20461;-67
2021/09/26 05:18:13;;;;;;;11.52;8.90;;;15.20;99.90;;;;;;5090962;28;20027;-67
2021/09/26 05:20:39;;;;;;;10.38;8.85;;;15.10;99.90;;;;;;5091886;28;20081;-67
2021/09/26 05:23:05;;;;;;;9.63;8.52;;;15.10;99.90;;;;;;5090727;28;20498;-66
2021/09/26 05:25:31;;;;;;;11.77;9.20;;;15.10;99.90;;;;;;5091634;28;20032;-67
2021/09/26 05:27:56;;;;;;;10.75;8.68;;;15.00;99.90;;;;;;5091606;28;20039;-68
2021/09/26 05:30:22;;;;;;;10.75;8.93;;;15.00;99.90;;;;;;5091126;28;20131;-67
2021/09/26 05:32:48;;;;;;;12.73;10.00;;;14.90;99.90;;;;;;5091817;28;20492;-67
2021/09/26 05:35:13;;;;;;;10.27;8.68;;;14.80;99.90;;;;;;5090873;28;20393;-70
2021/09/26 05:37:39;;;;;;;10.70;9.20;;;14.80;99.90;;;;;;5091453;28;20554;-69
2021/09/26 05:40:06;;;;;;;11.52;9.02;;;14.80;99.90;;;;;;5091397;28;20075;-67
2021/09/26 05:42:33;;;;;;;18.73;10.82;;;14.90;99.90;;;;;;5090516;28;20500;-68
2021/09/26 05:44:59;;;;;;;11.18;9.07;;;14.80;99.90;;;;;;5084458;28;20028;-69
2021/09/26 05:47:25;;;;;;;13.95;9.75;;;14.90;99.90;;;;;;5080072;28;20058;-70
2021/09/26 05:49:51;;;;;;;13.45;9.80;;;14.80;99.90;;;;;;5079462;28;20505;-69
2021/09/26 05:52:16;;;;;;;13.45;9.15;;;14.80;99.90;;;;;;5091263;28;20060;-70
2021/09/26 05:54:42;;;;;;;10.82;9.20;;;14.90;99.90;;;;;;5091152;28;20028;-70
2021/09/26 05:57:10;;;;;;;10.70;8.48;;;14.90;99.90;;;;;;5090537;28;20042;-69
2021/09/26 05:59:38;;;;;;;10.90;8.88;;;15.00;99.90;;;;;;5091642;28;20024;-70
2021/09/26 06:02:10;;;;;;;10.63;8.80;;;15.00;99.90;;;;;;5091337;28;20016;-67
2021/09/26 06:04:37;;;;;;;10.50;8.57;;;15.10;99.90;;;;;;5091694;28;20029;-70
2021/09/26 06:07:03;;;;;;;11.90;8.55;;;15.20;99.90;;;;;;5091339;28;20140;-69
2021/09/26 06:09:29;;;;;;;11.30;8.82;;;15.20;99.90;;;;;;5073053;28;20036;-69
2021/09/26 06:11:55;;;;;;;10.75;8.63;;;15.20;99.90;;;;;;5087752;28;20039;-71
2021/09/26 06:14:21;;;;;;;11.32;8.35;;;15.30;99.90;;;;;;5091007;28;20032;-70
2021/09/26 06:16:47;;;;;;;11.40;8.05;;;15.40;99.90;;;;;;5091471;28;20065;-70
2021/09/26 06:19:12;;;;;;;13.85;10.10;;;15.40;99.90;;;;;;5090791;28;20032;-69
2021/09/26 06:21:42;;;;;;;11.52;8.63;;;15.50;99.90;;;;;;5091305;28;20032;-70
2021/09/26 06:24:10;;;;;;;13.02;8.45;;;15.60;99.90;;;;;;5090570;28;20032;-68
2021/09/26 06:26:36;;;;;;;14.02;8.43;;;15.60;99.90;;;;;;5090750;28;20053;-70
2021/09/26 06:29:02;;;;;;;13.10;9.18;;;15.70;99.90;;;;;;5091090;28;20059;-68
2021/09/26 06:31:27;;;;;;;10.93;8.00;;;15.80;99.90;;;;;;5090126;28;20491;-69
2021/09/26 06:33:53;;;;;;;13.07;8.68;;;16.00;99.90;;;;;;5092332;28;20025;-70
2021/09/26 06:36:19;;;;;;;11.88;7.65;;;16.00;99.90;;;;;;5093078;28;20042;-71
2021/09/26 06:38:45;;;;;;;11.23;6.70;;;16.10;99.90;;;;;;5095355;28;20074;-70
2021/09/26 06:41:13;;;;;;;14.77;8.63;;;16.30;99.90;;;;;;5093657;28;20048;-69
2021/09/26 06:43:39;;;;;;;14.10;7.88;;;16.40;99.90;;;;;;5093826;28;20089;-70
2021/09/26 06:46:09;;;;;;;10.20;8.65;;;16.50;99.90;;;;;;5094412;28;20036;-68
2021/09/26 06:48:35;;;;;;;12.00;7.88;;;16.60;99.90;;;;;;5094268;28;20032;-70
2021/09/26 06:51:01;;;;;;;12.00;8.45;;;16.70;99.90;;;;;;5094996;28;20028;-69
2021/09/26 06:53:26;;;;;;;15.27;8.48;;;16.80;99.90;;;;;;5093423;28;20503;-68
2021/09/26 06:55:52;;;;;;;10.50;8.05;;;16.90;99.90;;;;;;5094655;28;20041;-70
2021/09/26 06:58:18;;;;;;;14.68;8.50;;;17.10;99.90;;;;;;5093597;28;20036;-69
2021/09/26 07:00:45;;;;;;;11.60;7.65;;;17.20;99.90;;;;;;5094553;28;20118;-70
2021/09/26 07:03:14;;;;;;;10.18;8.10;;;17.20;99.90;;;;;;5093305;28;20028;-75
2021/09/26 07:05:40;;;;;;;11.35;8.20;;;17.30;99.90;;;;;;5094665;28;20537;-76
2021/09/26 07:08:07;;;;;;;10.23;7.57;;;17.40;99.90;;;;;;5069504;28;20117;-75
2021/09/26 07:10:33;;;;;;;8.82;7.07;;;17.50;99.90;;;;;;5059544;28;20024;-78
2021/09/26 07:12:59;;;;;;;9.57;7.22;;;17.60;99.90;;;;;;5093693;28;20036;-79
2021/09/26 07:15:25;;;;;;;12.07;7.80;;;17.70;99.90;;;;;;5093633;28;20036;-77
2021/09/26 07:17:53;;;;;;;14.35;8.20;;;17.80;99.90;;;;;;5097345;28;20032;-76
2021/09/26 07:20:19;;;;;;;9.60;7.95;;;18.00;99.90;;;;;;5094358;28;20114;-73
2021/09/26 07:22:46;;;;;;;10.95;7.93;;;18.20;99.90;;;;;;5095593;28;20099;-76
2021/09/26 07:25:13;;;;;;;10.55;8.10;;;18.30;99.90;;;;;;5092822;28;20028;-73
2021/09/26 07:27:38;;;;;;;14.02;8.18;;;18.40;99.90;;;;;;5093397;28;20405;-72
2021/09/26 07:30:05;;;;;;;8.43;7.50;;;18.50;99.90;;;;;;5094145;28;20036;-76
2021/09/26 07:32:30;;;;;;;13.05;7.95;;;18.70;99.90;;;;;;5074631;28;20055;-80
2021/09/26 07:34:56;;;;;;;14.27;7.28;;;18.90;99.90;;;;;;5094764;28;20063;-78
2021/09/26 07:37:22;;;;;;;9.65;7.50;;;19.00;99.90;;;;;;5092780;28;20100;-72
2021/09/26 07:39:47;;;;;;;9.82;7.82;;;19.00;99.90;;;;;;5093224;28;20077;-74
2021/09/26 07:42:13;;;;;;;10.40;7.53;;;19.10;99.90;;;;;;5092774;28;20055;-70
2021/09/26 07:44:39;;;;;;;15.80;8.65;;;19.10;99.90;;;;;;5097223;28;20086;-78
2021/09/26 07:47:05;;;;;;;13.10;9.25;;;19.10;99.90;;;;;;5093435;28;20051;-80
2021/09/26 07:49:31;;;;;;;11.68;8.00;;;19.20;99.90;;;;;;5092827;28;20423;-79
2021/09/26 07:51:56;;;;;;;9.50;7.80;;;19.30;99.90;;;;;;5098891;28;20107;-78
2021/09/26 07:54:22;;;;;;;10.32;7.97;;;19.40;99.90;;;;;;5074632;28;20053;-79
2021/09/26 07:56:48;;;;;;;12.60;6.93;;;19.50;99.90;;;;;;5094251;28;20387;-76
2021/09/26 07:59:19;;;;;;;11.32;7.50;;;19.60;99.90;;;;;;5093220;28;20032;-76
2021/09/26 08:01:45;;;;;;;12.82;7.72;;;19.70;99.90;;;;;;5093572;28;20028;-76
2021/09/26 08:04:11;;;;;;;8.25;7.35;;;19.70;99.90;;;;;;5093419;28;20028;-76
2021/09/26 08:06:36;;;;;;;9.90;7.32;;;19.70;99.90;;;;;;5092412;28;20036;-77
2021/09/26 08:09:03;;;;;;;9.85;7.22;;;19.70;99.90;;;;;;5093137;28;20469;-78
2021/09/26 08:11:29;;;;;;;10.70;8.30;;;19.70;99.90;;;;;;5091533;28;20032;-82
2021/09/26 08:13:55;;;;;;;8.18;7.20;;;19.80;99.90;;;;;;5073967;28;20036;-78
2021/09/26 08:16:20;;;;;;;9.63;6.85;;;19.90;99.90;;;;;;5091834;28;20035;-77
2021/09/26 08:18:46;;;;;;;11.18;7.18;;;20.10;99.90;;;;;;5091771;28;20038;-78
2021/09/26 08:21:15;;;;;;;12.25;6.97;;;20.30;99.90;;;;;;5091556;28;20109;-77
2021/09/26 08:23:41;;;;;;;10.95;6.20;;;20.50;99.90;;;;;;5091686;28;20032;-78
2021/09/26 08:26:07;;;;;;;13.80;6.05;;;20.70;99.90;;;;;;5092031;28;20085;-77
2021/09/26 08:28:33;;;;;;;11.57;6.50;;;21.00;99.90;;;;;;5090807;28;20024;-78
2021/09/26 08:30:59;;;;;;;8.90;5.70;;;21.20;99.90;;;;;;5091312;28;20028;-79
2021/09/26 08:33:25;;;;;;;8.80;5.53;;;21.30;99.90;;;;;;5090963;28;20027;-78
2021/09/26 08:35:51;;;;;;;10.60;5.53;;;21.50;99.90;;;;;;5092018;28;20035;-77
2021/09/26 08:38:17;;;;;;;8.43;5.78;;;21.60;99.90;;;;;;5090340;28;20099;-77
2021/09/26 08:40:43;;;;;;;10.25;5.45;;;21.60;99.90;;;;;;5091674;28;20035;-78
2021/09/26 08:43:11;;;;;;;9.90;5.43;;;21.60;99.90;;;;;;5091635;28;20453;-78
2021/09/26 08:45:39;;;;;;;9.25;5.75;;;21.60;99.90;;;;;;5087931;28;20036;-78
2021/09/26 08:48:08;;;;;;;8.00;5.13;;;21.70;99.90;;;;;;5091540;28;20032;-77
2021/09/26 08:50:34;;;;;;;10.23;5.60;;;21.70;99.90;;;;;;5090923;28;20560;-76
2021/09/26 08:53:02;;;;;;;9.35;6.15;;;21.80;99.90;;;;;;5091406;28;20028;-77
2021/09/26 08:55:28;;;;;;;10.98;5.60;;;21.90;99.90;;;;;;5090079;28;20377;-77
2021/09/26 08:57:54;;;;;;;10.23;5.53;;;22.00;99.90;;;;;;5090292;28;20035;-77
2021/09/26 09:00:20;;;;;;;9.75;5.80;;;22.10;99.90;;;;;;5090458;28;20012;-76
2021/09/26 09:02:46;;;;;;;10.45;5.70;;;22.20;99.90;;;;;;5090536;28;20043;-77
2021/09/26 09:05:40;;;;;;;8.93;5.70;;;22.30;99.90;;;;;;5090789;28;20062;-77
2021/09/26 09:08:15;;;;;;;9.32;6.05;;;22.40;99.90;;;;;;5074733;28;20044;-75
2021/09/26 09:10:42;;;;;;;11.05;5.43;;;22.40;99.90;;;;;;5087617;28;20024;-76
2021/09/26 09:13:10;;;;;;;11.27;6.05;;;22.50;99.90;;;;;;5091595;28;20028;-75
2021/09/26 09:15:36;;;;;;;11.38;5.22;;;22.40;99.90;;;;;;5092291;28;20103;-79
2021/09/26 09:18:04;;;;;;;9.15;5.65;;;22.30;99.90;;;;;;5091706;28;20024;-73
2021/09/26 09:20:31;;;;;;;8.70;5.32;;;22.20;99.90;;;;;;5091001;28;20036;-77
2021/09/26 09:23:04;;;;;;;11.00;5.90;;;22.10;99.90;;;;;;5092406;28;20051;-74
2021/09/26 09:25:48;;;;;;;11.13;5.95;;;22.10;99.90;;;;;;5090404;28;20024;-77
2021/09/26 09:28:17;;;;;;;7.88;5.75;;;22.10;99.90;;;;;;5091184;28;20036;-79
2021/09/26 09:30:47;;;;;;;10.10;5.70;;;22.20;99.90;;;;;;5092137;28;20111;-74
2021/09/26 09:33:21;;;;;;;;;;;22.30;99.90;;;;;;5091391;28;20020;-84
2021/09/26 09:35:48;;;;;;;7.28;5.60;;;22.40;99.90;;;;;;5091465;28;19956;-76
2021/09/26 09:38:35;;;;;;;9.43;6.88;;;22.50;99.90;;;;;;5091466;28;20024;-77
2021/09/26 09:41:01;;;;;;;7.00;5.95;;;22.60;99.90;;;;;;5070048;28;20393;-74
2021/09/26 09:43:27;;;;;;;8.43;6.80;;;22.70;98.80;;;;;;5070340;28;20036;-74
2021/09/26 09:45:55;;;;;;;10.55;7.10;;;22.70;97.90;;;;;;5070973;28;20043;-74
2021/09/26 09:48:23;;;;;;;9.15;7.85;;;22.50;98.90;;;;;;5069288;28;20033;-74
2021/09/26 09:51:08;;;;;;;10.32;7.90;;;22.40;99.30;;;;;;5071174;28;20028;-73
2021/09/26 09:53:44;;;;;;;9.10;8.00;;;22.30;99.90;;;;;;5070166;28;20033;-75
2021/09/26 09:56:18;;;;;;;10.30;7.72;;;22.10;99.90;;;;;;5074146;28;20128;-74
2021/09/26 09:58:56;;;;;;;10.43;8.07;;;22.10;99.90;;;;;;5072575;28;20103;-77
2021/09/26 10:01:27;;;;;;;9.10;8.23;;;22.00;99.90;;;;;;5071724;28;20044;-74
2021/09/26 10:03:54;;;;;;;9.25;8.25;;;21.80;99.90;;;;;;5051099;28;20021;-76
2021/09/26 10:06:38;;;;;;;12.45;8.90;;;21.70;99.90;;;;;;5066016;28;20045;-74
2021/09/26 10:09:22;;;;;;;10.18;9.02;;;21.60;99.90;;;;;;5072152;28;20146;-72
2021/09/26 10:11:49;;;;;;;13.05;9.60;;;21.50;99.90;;;;;;5074842;28;20036;-67
2021/09/26 10:14:15;;;;;;;14.60;9.40;;;21.40;99.90;;;;;;5074837;28;20117;-66
2021/09/26 10:16:42;;;;;;;12.55;10.85;;;21.10;99.90;;;;;;5074083;28;20024;-67
2021/09/26 10:19:08;;;;;;;13.43;9.93;;;20.90;99.90;;;;;;5075077;28;20027;-67
2021/09/26 10:21:33;;;;;;;11.63;9.23;;;20.60;99.90;;;;;;5074359;28;20382;-69
2021/09/26 10:24:00;;;;;;;10.88;9.30;;;20.40;99.90;;;;;;5074427;28;20453;-71
2021/09/26 10:26:27;;;;;;;12.90;10.18;;;20.30;99.90;;;;;;5073903;28;20039;-66
2021/09/26 10:28:57;;;;;;;10.38;9.27;;;20.10;99.90;;;;;;5075161;28;20071;-67
2021/09/26 10:31:25;;;;;;;;;;;20.10;99.90;;;;;;5074265;28;20124;-66
2021/09/26 10:33:51;;;;;;;11.73;10.45;;;20.10;99.90;;;;;;5074510;28;19909;-74
2021/09/26 10:36:22;;;;;;;12.20;9.40;;;20.10;99.90;;;;;;5074238;28;20028;-64
2021/09/26 10:38:50;;;;;;;11.60;9.52;;;20.00;99.90;;;;;;5074587;28;20032;-66
2021/09/26 10:41:16;;;;;;;11.00;9.85;;;20.00;99.90;;;;;;5080329;28;20131;-67
2021/09/26 10:43:43;;;;;;;15.90;9.23;;;20.10;99.90;;;;;;5093904;28;20040;-67
2021/09/26 10:46:23;;;;;;;12.75;10.07;;;20.30;99.90;;;;;;5093590;28;20016;-66
2021/09/26 10:49:09;;;;;;;13.35;9.40;;;20.50;99.90;;;;;;5094402;28;20542;-66
2021/09/26 10:51:54;;;;;;;11.15;9.52;;;20.60;99.90;;;;;;5091992;28;20079;-66
2021/09/26 10:54:23;;;;;;;10.07;9.07;;;20.70;99.90;;;;;;5093064;28;20385;-66
2021/09/26 10:57:12;;;;;;;12.00;9.13;;;20.80;99.90;;;;;;5092209;28;20051;-66
2021/09/26 10:59:43;;;;;;;10.45;8.73;;;20.80;99.90;;;;;;5081434;28;20473;-66
2021/09/26 11:02:26;;;;;;;10.25;8.88;;;20.80;99.90;;;;;;5079319;28;20523;-66
2021/09/26 11:04:55;;;;;;;9.00;8.10;;;20.70;99.90;;;;;;5093270;28;20032;-65
2021/09/26 11:07:29;;;;;;;12.00;9.60;;;20.70;99.90;;;;;;5093823;28;20036;-65
2021/09/26 11:10:03;;;;;;;9.68;8.70;;;20.60;99.90;;;;;;5091973;28;20036;-65
2021/09/26 11:12:46;;;;;;;9.50;8.15;;;20.50;99.90;;;;;;5087892;28;20469;-65
2021/09/26 11:15:16;;;;;;;11.75;9.25;;;20.50;99.90;;;;;;5091558;28;20469;-66
2021/09/26 11:17:46;;;;;;;;;;;20.40;99.90;;;;;;5092985;28;20051;-66
2021/09/26 11:20:30;;;;;;;10.02;8.93;;;20.30;99.90;;;;;;5093415;28;19904;-66
2021/09/26 11:23:08;;;;;;;10.93;8.07;;;20.20;99.90;;;;;;5093277;28;20590;-66
2021/09/26 11:25:56;;;;;;;9.90;8.85;;;20.20;99.90;;;;;;5092529;28;20032;-65
2021/09/26 11:28:40;;;;;;;10.43;8.43;;;20.10;99.90;;;;;;5091945;28;20028;-65
2021/09/26 11:31:30;;;;;;;12.57;9.70;;;20.00;99.90;;;;;;5078851;28;20020;-66
2021/09/26 11:33:58;;;;;;;12.20;9.97;;;19.90;99.90;;;;;;5075892;28;20369;-67
2021/09/26 11:36:26;;;;;;;11.95;10.13;;;19.80;99.90;;;;;;5092513;28;20031;-67
2021/09/26 11:38:53;;;;;;;10.70;9.35;;;19.60;99.90;;;;;;5082047;28;20537;-66
2021/09/26 11:41:38;;;;;;;11.95;10.73;;;19.40;99.90;;;;;;5092529;28;20088;-67
2021/09/26 11:44:08;;;;;;;11.23;10.23;;;19.30;99.90;;;;;;5093048;28;20421;-66
2021/09/26 11:46:35;;;;;;;11.68;9.90;;;19.30;99.90;;;;;;5092072;28;20032;-66
2021/09/26 11:49:08;;;;;;;11.77;10.35;;;19.30;99.90;;;;;;5090460;28;20099;-66
2021/09/26 11:51:36;;;;;;;12.48;10.73;;;19.20;99.90;;;;;;5092299;28;20069;-65
2021/09/26 11:54:04;;;;;;;12.93;10.65;;;19.20;99.90;;;;;;5090355;28;20449;-66
2021/09/26 11:56:38;;;;;;;13.02;10.05;;;19.30;99.90;;;;;;5091645;28;20118;-66
2021/09/26 11:59:07;;;;;;;12.20;10.80;;;19.30;99.90;;;;;;5090650;28;20031;-66
2021/09/26 12:01:36;;;;;;;9.98;8.98;;;19.30;99.90;;;;;;5091275;28;20032;-66
2021/09/26 12:04:13;;;;;;;11.80;9.63;;;19.30;99.90;;;;;;5087420;28;20046;-66
2021/09/26 12:06:42;;;;;;;12.38;10.18;;;19.40;99.90;;;;;;5091535;28;20039;-66
2021/09/26 12:09:08;;;;;;;10.35;9.35;;;19.50;99.90;;;;;;5090954;28;20039;-66
2021/09/26 12:11:48;;;;;;;13.40;9.38;;;19.60;99.90;;;;;;5090720;28;20766;-66
2021/09/26 12:14:20;;;;;;;;;;;19.80;99.90;;;;;;5092461;28;20032;-66
2021/09/26 12:16:46;;;;;;;9.13;7.78;;;19.90;99.90;;;;;;5091603;28;19908;-66
2021/09/26 12:19:12;;;;;;;11.45;8.45;;;20.20;99.90;;;;;;5092322;28;20480;-66
2021/09/26 12:21:38;;;;;;;11.65;8.55;;;20.60;99.90;;;;;;5090598;28;20027;-66
2021/09/26 12:24:11;;;;;;;10.45;8.48;;;21.00;99.90;;;;;;5092329;28;20418;-66
2021/09/26 12:26:46;;;;;;;9.65;8.32;;;21.40;99.90;;;;;;5090773;28;20028;-65
2021/09/26 12:29:26;;;;;;;7.88;6.93;;;22.00;99.90;;;;;;5091983;28;20530;-65
2021/09/26 12:31:56;;;;;;;9.18;7.35;;;22.60;99.90;;;;;;5090009;28;20058;-65
2021/09/26 12:34:34;;;;;;;9.13;6.90;;;23.30;99.90;;;;;;5091496;28;20035;-64
2021/09/26 12:37:01;;;;;;;9.52;7.43;;;23.90;99.90;;;;;;5091412;28;20060;-64
2021/09/26 12:39:38;;;;;;;8.50;6.70;;;24.20;99.90;;;;;;5088174;28;20556;-65
2021/09/26 12:42:04;;;;;;;7.05;6.35;;;24.30;99.60;;;;;;5092516;28;20044;-66
2021/09/26 12:44:37;;;;;;;9.23;7.28;;;24.30;99.70;;;;;;5080572;28;20465;-69
2021/09/26 12:47:12;;;;;;;6.80;6.13;;;24.40;99.90;;;;;;5093532;28;20389;-71
2021/09/26 12:49:40;;;;;;;6.93;6.20;;;24.50;99.90;;;;;;5091640;28;20043;-70